createdAt,value
2023-05-23T00:01:21.415Z,99737.81
2023-05-23T00:03:49.353Z,99736.72
2023-05-23T00:06:21.419Z,99751.63
2023-05-23T00:08:48.267Z,99744.22
2023-05-23T00:11:15.107Z,99746.44
2023-05-23T00:13:42.412Z,99740.97
2023-05-23T00:16:09.683Z,99741.53
2023-05-23T00:18:43.135Z,99741.25
2023-05-23T00:21:10.136Z,99752.38
2023-05-23T00:23:36.726Z,99751.25
2023-05-23T00:26:03.891Z,99756.31
2023-05-23T00:28:30.500Z,99747.03
2023-05-23T00:30:57.055Z,99745.63
2023-05-23T00:33:23.693Z,99754.03
2023-05-23T00:35:50.595Z,99746.47
2023-05-23T00:38:17.754Z,99747.72
2023-05-23T00:40:44.479Z,99756.84
2023-05-23T00:43:11.229Z,99753.59
2023-05-23T00:45:38.193Z,99760.91
2023-05-23T00:48:06.496Z,99760.22
2023-05-23T00:50:33.840Z,99766.50
2023-05-23T00:53:01.753Z,99763.28
2023-05-23T00:55:29.207Z,99759.06
2023-05-23T00:57:57.252Z,99756.69
2023-05-23T01:00:26.100Z,99757.81
2023-05-23T01:02:53.624Z,99757.09
2023-05-23T01:05:24.902Z,99752.03
2023-05-23T01:07:51.897Z,99758.38
2023-05-23T01:10:28.254Z,99763.22
2023-05-23T01:13:22.249Z,99756.34
2023-05-23T01:16:02.924Z,99759.03
2023-05-23T01:19:08.757Z,99762.81
2023-05-23T01:21:38.261Z,99762.41
2023-05-23T01:24:36.585Z,99764.63
2023-05-23T01:27:11.975Z,99766.06
2023-05-23T01:29:43.461Z,99771.22
2023-05-23T01:32:12.718Z,99772.06
2023-05-23T01:34:40.244Z,99762.28
2023-05-23T01:37:11.391Z,99766.88
2023-05-23T01:39:38.809Z,99780.94
2023-05-23T01:42:06.290Z,99773.06
2023-05-23T01:44:35.368Z,99781.31
2023-05-23T01:47:07.186Z,99773.72
2023-05-23T01:49:36.890Z,99785.47
2023-05-23T01:52:04.830Z,99785.47
2023-05-23T01:54:32.901Z,99780.28
2023-05-23T01:57:01.415Z,99781.38
2023-05-23T01:59:28.056Z,99780.69
2023-05-23T02:01:54.736Z,99783.47
2023-05-23T02:04:22.114Z,99782.66
2023-05-23T02:06:48.590Z,99789.91
2023-05-23T02:09:15.208Z,99783.63
2023-05-23T02:11:41.690Z,99787.25
2023-05-23T02:14:09.367Z,99791.47
2023-05-23T02:16:36.618Z,99789.78
2023-05-23T02:19:03.636Z,99793.31
2023-05-23T02:21:30.177Z,99788.94
2023-05-23T02:23:56.852Z,99793.44
2023-05-23T02:26:23.345Z,99790.06
2023-05-23T02:28:49.886Z,99793.69
2023-05-23T02:31:17.316Z,99800.84
2023-05-23T02:33:44.007Z,99796.50
2023-05-23T02:36:10.690Z,99809.13
2023-05-23T02:38:37.199Z,99800.41
2023-05-23T02:41:04.849Z,99801.50
2023-05-23T02:43:31.419Z,99802.63
2023-05-23T02:45:58.179Z,99804.56
2023-05-23T02:48:24.804Z,99796.13
2023-05-23T02:50:51.450Z,99804.13
2023-05-23T02:53:18.317Z,99802.56
2023-05-23T02:55:44.899Z,99796.69
2023-05-23T02:58:11.504Z,99796.25
2023-05-23T03:00:38.475Z,99804.47
2023-05-23T03:03:05.273Z,99808.25
2023-05-23T03:05:31.817Z,99811.16
2023-05-23T03:07:58.448Z,99807.09
2023-05-23T03:10:25.123Z,99800.22
2023-05-23T03:12:51.633Z,99806.75
2023-05-23T03:15:18.291Z,99812.22
2023-05-23T03:17:44.980Z,99808.84
2023-05-23T03:20:11.794Z,99807.19
2023-05-23T03:22:38.247Z,99805.47
2023-05-23T03:25:05.182Z,99816.09
2023-05-23T03:27:31.598Z,99822.28
2023-05-23T03:29:58.100Z,99814.31
2023-05-23T03:32:24.717Z,99823.25
2023-05-23T03:34:51.326Z,99820.59
2023-05-23T03:37:17.898Z,99816.97
2023-05-23T03:39:44.443Z,99825.06
2023-05-23T03:42:10.870Z,99822.41
2023-05-23T03:44:37.449Z,99824.22
2023-05-23T03:47:04.064Z,99819.75
2023-05-23T03:49:30.633Z,99813.56
2023-05-23T03:51:58.297Z,99816.97
2023-05-23T03:54:24.833Z,99812.50
2023-05-23T03:56:51.357Z,99827.59
2023-05-23T03:59:18.574Z,99835.59
2023-05-23T04:01:45.067Z,99834.59
2023-05-23T04:04:11.638Z,99832.06
2023-05-23T04:06:38.345Z,99834.84
2023-05-23T04:09:06.398Z,99833.16
2023-05-23T04:11:33.222Z,99838.50
2023-05-23T04:13:59.799Z,99841.28
2023-05-23T04:16:26.329Z,99843.94
2023-05-23T04:18:54.270Z,99845.78
2023-05-23T04:21:20.974Z,99860.88
2023-05-23T04:23:47.468Z,99856.41
2023-05-23T04:26:14.005Z,99860.06
2023-05-23T04:28:40.803Z,99864.41
2023-05-23T04:31:08.234Z,99859.91
2023-05-23T04:33:35.092Z,99860.88
2023-05-23T04:36:02.593Z,99864.53
2023-05-23T04:38:29.110Z,99862.84
2023-05-23T04:40:55.668Z,99865.63
2023-05-23T04:43:22.256Z,99884.38
2023-05-23T04:45:50.027Z,99876.50
2023-05-23T04:48:17.327Z,99877.50
2023-05-23T04:50:44.458Z,99887.41
2023-05-23T04:53:11.156Z,99891.16
2023-05-23T04:55:37.792Z,99881.50
2023-05-23T04:58:04.620Z,99889.59
2023-05-23T05:00:31.243Z,99890.59
2023-05-23T05:02:58.072Z,99897.72
2023-05-23T05:05:24.637Z,99888.91
2023-05-23T05:07:51.213Z,99911.41
2023-05-23T05:10:18.055Z,99906.41
2023-05-23T05:12:46.820Z,99914.63
2023-05-23T05:15:13.744Z,99920.22
2023-05-23T05:17:40.664Z,99924.22
2023-05-23T05:20:08.764Z,99935.22
2023-05-23T05:22:42.947Z,99935.59
2023-05-23T05:25:11.175Z,99933.19
2023-05-23T05:27:38.053Z,99931.75
2023-05-23T05:30:09.112Z,99933.81
2023-05-23T05:32:36.000Z,99932.13
2023-05-23T05:35:03.569Z,99948.19
2023-05-23T05:37:30.231Z,99955.44
2023-05-23T05:39:56.992Z,99959.28
2023-05-23T05:42:23.562Z,99958.72
2023-05-23T05:44:50.638Z,99958.34
2023-05-23T05:47:17.351Z,99955.94
2023-05-23T05:49:44.020Z,99950.00
2023-05-23T05:52:10.740Z,99952.91
2023-05-23T05:54:37.698Z,99954.00
2023-05-23T05:57:04.784Z,99961.25
2023-05-23T05:59:32.660Z,99962.31
2023-05-23T06:01:59.460Z,99985.28
2023-05-23T06:04:26.313Z,99976.56
2023-05-23T06:06:52.824Z,99975.84
2023-05-23T06:09:19.437Z,99985.63
2023-05-23T06:11:45.995Z,99982.97
2023-05-23T06:14:12.594Z,99990.09
2023-05-23T06:16:39.822Z,99989.25
2023-05-23T06:19:06.912Z,99984.91
2023-05-23T06:21:33.582Z,99991.16
2023-05-23T06:24:00.121Z,100001.06
2023-05-23T06:26:26.958Z,100003.00
2023-05-23T06:28:53.494Z,100010.34
2023-05-23T06:31:20.008Z,100007.81
2023-05-23T06:33:46.573Z,100010.72
2023-05-23T06:36:13.184Z,100016.97
2023-05-23T06:38:39.701Z,100013.50
2023-05-23T06:41:07.292Z,100021.56
2023-05-23T06:43:33.954Z,100026.03
2023-05-23T06:46:00.600Z,100034.97
2023-05-23T06:48:27.173Z,100018.19
2023-05-23T06:50:53.760Z,100023.63
2023-05-23T06:53:20.560Z,100031.72
2023-05-23T06:55:47.294Z,100039.78
2023-05-23T06:58:14.764Z,100028.41
2023-05-23T07:00:41.542Z,100033.00
2023-05-23T07:03:08.426Z,100037.56
2023-05-23T07:05:37.422Z,100046.50
2023-05-23T07:08:07.345Z,100041.31
2023-05-23T07:10:35.385Z,100048.56
2023-05-23T07:13:02.159Z,100054.91
2023-05-23T07:15:28.708Z,100046.22
2023-05-23T07:17:55.718Z,100057.78
2023-05-23T07:20:22.464Z,100064.91
2023-05-23T07:22:50.847Z,100065.88
2023-05-23T07:25:17.658Z,100062.34
2023-05-23T07:27:44.267Z,100065.97
2023-05-23T07:30:11.157Z,100064.41
2023-05-23T07:32:37.840Z,100074.31
2023-05-23T07:35:05.151Z,100078.84
2023-05-23T07:37:31.823Z,100075.69
2023-05-23T07:39:58.414Z,100080.28
2023-05-23T07:42:24.955Z,100089.19
2023-05-23T07:44:51.536Z,100092.91
2023-05-23T07:47:18.163Z,100102.72
2023-05-23T07:49:45.054Z,100094.84
2023-05-23T07:52:11.592Z,100096.75
2023-05-23T07:54:38.130Z,100100.47
2023-05-23T07:57:05.164Z,100106.88
2023-05-23T07:59:31.735Z,100109.72
2023-05-23T08:01:58.338Z,100108.91
2023-05-23T08:04:25.005Z,100108.03
2023-05-23T08:07:00.804Z,100121.31
2023-05-23T08:09:32.004Z,100124.06
2023-05-23T08:11:58.557Z,100123.34
2023-05-23T08:14:31.709Z,100123.56
2023-05-23T08:17:05.224Z,100134.38
2023-05-23T14:21:46.080Z,100329.84
2023-05-23T14:24:12.763Z,100332.75
2023-05-23T14:26:39.350Z,100330.41
2023-05-23T14:29:06.297Z,100335.72
2023-05-23T14:31:32.861Z,100335.66
2023-05-23T14:33:59.585Z,100331.47
2023-05-23T14:36:28.534Z,100340.66
2023-05-23T14:38:55.088Z,100334.13
2023-05-23T14:41:22.857Z,100344.19
2023-05-23T14:43:49.571Z,100343.63
2023-05-23T14:46:17.886Z,100343.97
2023-05-23T14:48:44.514Z,100346.88
2023-05-23T14:51:14.038Z,100342.13
2023-05-23T14:53:47.421Z,100342.25
2023-05-23T14:56:14.134Z,100348.09
2023-05-23T14:58:45.584Z,100350.69
2023-05-23T15:01:13.459Z,100346.31
2023-05-23T15:03:40.073Z,100341.41
2023-05-23T15:06:07.681Z,100344.69
2023-05-23T15:08:34.283Z,100339.13
2023-05-23T15:11:00.820Z,100335.50
2023-05-23T15:13:27.437Z,100342.72
2023-05-23T15:15:54.417Z,100345.03
2023-05-23T15:18:35.694Z,100342.59
2023-05-23T15:21:06.889Z,100347.38
2023-05-23T15:23:33.567Z,100340.59
2023-05-23T15:26:00.861Z,100343.47
2023-05-23T15:28:27.431Z,100341.94
2023-05-23T15:30:54.332Z,100344.16
2023-05-23T15:33:22.017Z,100354.00
2023-05-23T15:35:48.636Z,100355.38
2023-05-23T15:38:17.111Z,100340.00
2023-05-23T15:40:48.831Z,100348.50
2023-05-23T15:43:15.701Z,100355.41
2023-05-23T15:45:42.539Z,100348.75
2023-05-23T15:48:09.280Z,100351.00
2023-05-23T15:50:35.921Z,100351.38
2023-05-23T15:53:02.581Z,100366.22
2023-05-23T15:55:29.088Z,100346.50
2023-05-23T15:57:55.710Z,100355.81
2023-05-23T16:00:22.327Z,100354.56
2023-05-23T16:02:48.950Z,100358.84
2023-05-23T16:05:15.694Z,100349.78
2023-05-23T16:07:42.274Z,100362.78
2023-05-23T16:10:09.273Z,100359.88
2023-05-23T16:12:35.936Z,100356.16
2023-05-23T16:15:02.794Z,100358.22
2023-05-23T16:17:29.478Z,100362.13
2023-05-23T16:19:56.095Z,100364.09
2023-05-23T16:22:23.390Z,100365.44
2023-05-23T16:24:49.981Z,100360.19
2023-05-23T16:27:16.714Z,100359.56
2023-05-23T16:29:43.371Z,100358.44
2023-05-23T16:32:10.134Z,100353.13
2023-05-23T16:34:36.798Z,100354.06
2023-05-23T16:37:03.425Z,100363.06
2023-05-23T16:39:30.027Z,100355.38
2023-05-23T16:41:58.752Z,100353.72
2023-05-23T16:44:26.930Z,100356.41
2023-05-23T16:46:53.758Z,100354.22
2023-05-23T16:49:20.343Z,100357.56
2023-05-23T16:51:48.640Z,100355.63
2023-05-23T16:54:15.857Z,100361.03
2023-05-23T16:56:42.988Z,100362.91
2023-05-23T16:59:09.637Z,100361.72
2023-05-23T17:01:36.278Z,100360.28
2023-05-23T17:04:04.344Z,100360.28
2023-05-23T17:06:31.424Z,100344.13
2023-05-23T17:08:58.147Z,100354.44
2023-05-23T17:11:25.490Z,100361.06
2023-05-23T17:13:52.278Z,100359.78
2023-05-23T17:16:20.687Z,100356.50
2023-05-23T17:18:47.570Z,100355.06
2023-05-23T17:21:14.289Z,100361.69
2023-05-23T17:23:40.864Z,100361.09
2023-05-23T17:26:07.508Z,100371.19
2023-05-23T17:28:34.063Z,100368.59
2023-05-23T17:31:00.994Z,100371.63
2023-05-23T17:33:27.648Z,100373.69
2023-05-23T17:35:54.192Z,100378.50
2023-05-23T17:38:20.786Z,100380.50
2023-05-23T17:40:47.466Z,100379.88
2023-05-23T17:43:14.088Z,100379.94
2023-05-23T17:45:41.475Z,100383.50
2023-05-23T17:48:08.218Z,100386.69
2023-05-23T17:50:34.805Z,100383.69
2023-05-23T17:53:04.117Z,100383.91
2023-05-23T17:55:30.956Z,100390.31
2023-05-23T17:57:57.648Z,100394.84
2023-05-23T18:00:24.922Z,100393.16
2023-05-23T18:02:51.957Z,100388.06
2023-05-23T18:05:20.826Z,100392.81
2023-05-23T18:07:47.846Z,100402.28
2023-05-23T18:10:14.494Z,100388.13
2023-05-23T18:12:41.281Z,100400.50
2023-05-23T18:15:10.049Z,100402.47
2023-05-23T18:17:36.783Z,100399.09
2023-05-23T18:20:03.928Z,100405.41
2023-05-23T18:22:33.369Z,100408.09
2023-05-23T18:25:00.214Z,100416.88
2023-05-23T18:27:26.879Z,100417.56
2023-05-23T18:29:53.488Z,100412.84
2023-05-23T18:32:20.885Z,100404.59
2023-05-23T18:34:47.537Z,100410.63
2023-05-23T18:37:14.151Z,100412.31
2023-05-23T18:39:41.131Z,100421.00
2023-05-23T18:42:07.853Z,100412.88
2023-05-23T18:44:35.202Z,100417.78
2023-05-23T18:47:01.770Z,100427.31
2023-05-23T18:49:28.422Z,100429.69
2023-05-23T18:51:54.877Z,100425.78
2023-05-23T18:54:21.384Z,100436.84
2023-05-23T18:56:47.937Z,100435.72
2023-05-23T18:59:15.815Z,100433.59
2023-05-23T19:01:42.641Z,100434.16
2023-05-23T19:04:09.940Z,100440.88
2023-05-23T19:06:36.812Z,100432.72
2023-05-23T19:09:06.710Z,100445.06
2023-05-23T19:11:33.301Z,100444.97
2023-05-23T19:13:59.777Z,100455.50
2023-05-23T19:16:26.371Z,100451.78
2023-05-23T19:18:53.152Z,100467.31
2023-05-23T19:21:19.684Z,100467.84
2023-05-23T19:23:46.171Z,100469.06
2023-05-23T19:26:13.621Z,100473.81
2023-05-23T19:28:40.496Z,100478.69
2023-05-23T19:31:07.925Z,100481.78
2023-05-23T19:33:34.489Z,100487.50
2023-05-23T19:36:01.241Z,100487.81
2023-05-23T19:38:27.798Z,100486.50
2023-05-23T19:40:54.352Z,100485.13
2023-05-23T19:43:21.037Z,100491.78
2023-05-23T19:45:47.595Z,100501.09
2023-05-23T19:48:14.293Z,100501.50
2023-05-23T19:50:43.201Z,100507.28
2023-05-23T19:53:10.067Z,100497.19
2023-05-23T19:55:36.627Z,100504.78
2023-05-23T19:58:03.382Z,100506.22
2023-05-23T20:00:29.879Z,100502.25
2023-05-23T20:02:56.898Z,100512.28
2023-05-23T20:05:23.628Z,100510.97
2023-05-23T20:07:50.156Z,100513.88
2023-05-23T20:10:16.692Z,100511.59
2023-05-23T20:12:43.243Z,100506.69
2023-05-23T20:15:10.117Z,100508.78
2023-05-23T20:17:36.769Z,100505.53
2023-05-23T20:22:50.106Z,100521.09
2023-05-23T20:25:17.571Z,100522.22
2023-05-23T20:27:44.097Z,100517.94
2023-05-23T20:30:11.493Z,100527.97
2023-05-23T20:32:38.208Z,100520.31
2023-05-23T20:35:05.207Z,100534.69
2023-05-23T20:37:31.800Z,100531.47
2023-05-23T20:40:00.572Z,100525.56
2023-05-23T20:42:28.816Z,100531.16
2023-05-23T20:44:56.989Z,100540.28
2023-05-23T20:47:25.670Z,100525.69
2023-05-23T20:49:52.169Z,100535.81
2023-05-23T20:52:18.692Z,100531.72
2023-05-23T20:54:48.074Z,100529.34
2023-05-23T20:57:14.795Z,100518.28
2023-05-23T20:59:41.337Z,100524.69
2023-05-23T21:02:08.261Z,100531.09
2023-05-23T21:04:34.857Z,100533.97
2023-05-23T21:07:01.517Z,100531.53
2023-05-23T21:09:28.079Z,100535.22
2023-05-23T21:11:54.629Z,100535.34
2023-05-23T21:14:21.203Z,100529.38
2023-05-23T21:16:47.841Z,100529.53
2023-05-23T21:19:14.728Z,100530.56
2023-05-23T21:21:41.450Z,100529.78
2023-05-23T21:24:08.015Z,100533.47
2023-05-23T21:26:34.578Z,100526.56
2023-05-23T21:29:01.326Z,100528.44
2023-05-23T21:31:40.174Z,100531.25
2023-05-23T21:34:21.668Z,100534.94
2023-05-23T21:36:50.340Z,100538.59
2023-05-23T21:39:16.910Z,100538.75
2023-05-23T21:41:43.434Z,100534.50
2023-05-23T21:44:10.015Z,100536.44
2023-05-23T21:46:37.221Z,100547.19
2023-05-23T21:49:04.157Z,100532.44
2023-05-23T21:51:31.167Z,100539.59
2023-05-23T21:53:57.636Z,100535.34
2023-05-23T21:56:24.214Z,100534.56
2023-05-23T21:58:50.805Z,100535.59
2023-05-23T22:01:17.513Z,100531.22
2023-05-23T22:03:44.064Z,100525.19
2023-05-23T22:06:10.751Z,100526.13
2023-05-23T22:08:52.517Z,100527.22
2023-05-23T22:11:19.352Z,100519.13
2023-05-23T22:13:45.872Z,100526.22
2023-05-23T22:16:12.440Z,100519.22
2023-05-23T22:18:51.558Z,100528.94
2023-05-23T22:21:18.607Z,100526.28
2023-05-23T22:23:45.361Z,100529.00
2023-05-23T22:26:12.452Z,100524.75
2023-05-23T22:28:39.157Z,100520.50
2023-05-23T22:31:05.683Z,100525.84
2023-05-23T22:33:32.264Z,100517.25
2023-05-23T22:35:58.871Z,100519.97
2023-05-23T22:38:25.595Z,100522.75
2023-05-23T22:40:52.163Z,100516.81
2023-05-23T22:43:21.453Z,100517.81
2023-05-23T22:45:49.989Z,100522.31
2023-05-23T22:48:19.296Z,100525.16
2023-05-23T22:50:46.656Z,100526.91
2023-05-23T22:53:15.311Z,100533.16
2023-05-23T22:55:42.283Z,100532.28
2023-05-23T22:58:09.033Z,100529.78
2023-05-23T23:00:36.552Z,100536.81
2023-05-23T23:03:03.671Z,100533.38
2023-05-23T23:05:30.677Z,100536.97
2023-05-23T23:07:57.285Z,100529.97
2023-05-23T23:10:23.826Z,100530.06
2023-05-23T23:12:50.627Z,100535.41
2023-05-23T23:15:17.244Z,100525.00
2023-05-23T23:17:43.913Z,100529.53
2023-05-23T23:20:12.617Z,100535.81
2023-05-23T23:22:39.702Z,100534.19
2023-05-23T23:25:10.534Z,100529.91
2023-05-23T23:27:38.188Z,100527.44
2023-05-23T23:30:08.500Z,100528.44
2023-05-23T23:32:35.343Z,100524.94
2023-05-23T23:35:02.275Z,100525.03
2023-05-23T23:37:28.911Z,100521.63
2023-05-23T23:39:55.612Z,100520.84
2023-05-23T23:42:22.248Z,100525.28
2023-05-23T23:44:48.870Z,100527.13
2023-05-23T23:47:15.441Z,100536.06
2023-05-23T23:49:42.291Z,100535.31
2023-05-23T23:52:09.304Z,100526.53
2023-05-23T23:54:36.065Z,100528.28
2023-05-23T23:57:02.643Z,100526.59
2023-05-23T23:59:29.347Z,100532.97
